TAM3560 SBCG-SBCR
Flight info
| Callsign | TAM3560 |
|---|---|
| Flight time | 0h 40m |
| Altitude | 22000 |
| Route | ATNAS Z22 NEGRO |
| Aircraft | A319/M-SDE3FGHIRWY/LB1 |
Departure
| Time | 2026-05-06 20:31 |
|---|---|
| Airport | Campo Grande Airport (SBCG) |
Arrival
| Time | 2026-05-06 21:11 |
|---|---|
| Airport | Corumbá International Airport (SBCR) |
| Time | Latitude | Longitude | Altitude | Speed | Heading |
|---|---|---|---|---|---|
| 2026-05-06 20:24 | -20.45846 | -54.66903 | 1839 ft | 3 kts | 268° |
| 2026-05-06 20:24 | -20.45846 | -54.66899 | 1839 ft | 0 kts | 264° |
| 2026-05-06 20:25 | -20.45847 | -54.66912 | 1839 ft | 8 kts | 264° |
| 2026-05-06 20:26 | -20.45855 | -54.66995 | 1839 ft | 14 kts | 264° |
| 2026-05-06 20:26 | -20.45872 | -54.67103 | 1839 ft | 16 kts | 244° |
| 2026-05-06 20:26 | -20.45972 | -54.67130 | 1839 ft | 16 kts | 176° |
| 2026-05-06 20:26 | -20.46092 | -54.67120 | 1839 ft | 19 kts | 174° |
| 2026-05-06 20:27 | -20.46230 | -54.67105 | 1839 ft | 20 kts | 172° |
| 2026-05-06 20:27 | -20.46375 | -54.67092 | 1839 ft | 21 kts | 184° |
| 2026-05-06 20:27 | -20.46501 | -54.67174 | 1839 ft | 22 kts | 223° |
| 2026-05-06 20:27 | -20.46618 | -54.67286 | 1839 ft | 23 kts | 221° |
| 2026-05-06 20:28 | -20.46744 | -54.67400 | 1839 ft | 24 kts | 221° |
| 2026-05-06 20:28 | -20.46869 | -54.67527 | 1839 ft | 25 kts | 223° |
| 2026-05-06 20:28 | -20.47000 | -54.67655 | 1839 ft | 26 kts | 223° |
| 2026-05-06 20:28 | -20.47139 | -54.67788 | 1839 ft | 27 kts | 222° |
| 2026-05-06 20:29 | -20.47282 | -54.67927 | 1841 ft | 28 kts | 221° |
| 2026-05-06 20:29 | -20.47432 | -54.68072 | 1839 ft | 29 kts | 223° |
| 2026-05-06 20:29 | -20.47583 | -54.68220 | 1839 ft | 30 kts | 220° |
| 2026-05-06 20:29 | -20.47725 | -54.68345 | 1839 ft | 20 kts | 189° |
| 2026-05-06 20:30 | -20.47830 | -54.68256 | 1839 ft | 20 kts | 118° |
| 2026-05-06 20:30 | -20.47230 | -54.67623 | 1837 ft | 124 kts | 42° |
| 2026-05-06 20:30 | -20.46489 | -54.66908 | 2092 ft | 150 kts | 41° |
| 2026-05-06 20:31 | -20.45747 | -54.66170 | 2771 ft | 147 kts | 41° |
| 2026-05-06 20:31 | -20.44960 | -54.65419 | 3316 ft | 155 kts | 41° |
| 2026-05-06 20:31 | -20.44167 | -54.64667 | 3792 ft | 155 kts | 41° |
| 2026-05-06 20:31 | -20.43304 | -54.63849 | 3966 ft | 176 kts | 41° |
| 2026-05-06 20:32 | -20.42330 | -54.62923 | 4121 ft | 200 kts | 41° |
| 2026-05-06 20:32 | -20.41223 | -54.61868 | 4360 ft | 225 kts | 41° |
| 2026-05-06 20:32 | -20.39933 | -54.60777 | 4680 ft | 249 kts | 27° |
| 2026-05-06 20:32 | -20.38205 | -54.60369 | 5176 ft | 264 kts | 357° |
| 2026-05-06 20:33 | -20.36463 | -54.61032 | 5930 ft | 275 kts | 325° |
| 2026-05-06 20:33 | -20.35201 | -54.62582 | 6733 ft | 281 kts | 307° |
| 2026-05-06 20:33 | -20.34095 | -54.64309 | 7538 ft | 283 kts | 306° |
| 2026-05-06 20:33 | -20.32988 | -54.66060 | 8340 ft | 286 kts | 306° |
| 2026-05-06 20:34 | -20.31872 | -54.67826 | 9114 ft | 288 kts | 305° |
| 2026-05-06 20:34 | -20.30743 | -54.69604 | 9905 ft | 291 kts | 305° |
| 2026-05-06 20:34 | -20.29582 | -54.71428 | 10290 ft | 307 kts | 306° |
| 2026-05-06 20:34 | -20.28347 | -54.73389 | 10438 ft | 331 kts | 302° |
| 2026-05-06 20:35 | -20.27331 | -54.75671 | 10629 ft | 351 kts | 290° |
| 2026-05-06 20:35 | -20.26734 | -54.78224 | 11085 ft | 360 kts | 282° |
| 2026-05-06 20:35 | -20.26249 | -54.80863 | 11625 ft | 364 kts | 282° |
| 2026-05-06 20:35 | -20.25752 | -54.83521 | 12154 ft | 369 kts | 283° |
| 2026-05-06 20:36 | -20.25242 | -54.86219 | 12662 ft | 373 kts | 283° |
| 2026-05-06 20:36 | -20.24723 | -54.88941 | 13175 ft | 377 kts | 283° |
| 2026-05-06 20:36 | -20.24194 | -54.91694 | 13672 ft | 382 kts | 284° |
| 2026-05-06 20:36 | -20.23660 | -54.94477 | 14127 ft | 385 kts | 283° |
| 2026-05-06 20:37 | -20.23124 | -54.97278 | 14606 ft | 387 kts | 283° |
| 2026-05-06 20:37 | -20.22588 | -55.00092 | 15103 ft | 389 kts | 283° |
| 2026-05-06 20:37 | -20.22051 | -55.02917 | 15620 ft | 390 kts | 283° |
| 2026-05-06 20:37 | -20.21512 | -55.05750 | 16123 ft | 391 kts | 282° |
| 2026-05-06 20:38 | -20.20970 | -55.08596 | 16628 ft | 393 kts | 282° |
| 2026-05-06 20:38 | -20.20426 | -55.11449 | 17138 ft | 394 kts | 282° |
| 2026-05-06 20:38 | -20.19875 | -55.14311 | 17664 ft | 395 kts | 282° |
| 2026-05-06 20:38 | -20.19321 | -55.17180 | 18211 ft | 396 kts | 281° |
| 2026-05-06 20:39 | -20.18767 | -55.20052 | 18668 ft | 397 kts | 281° |
| 2026-05-06 20:39 | -20.18209 | -55.22938 | 19098 ft | 399 kts | 281° |
| 2026-05-06 20:39 | -20.17649 | -55.25843 | 19503 ft | 402 kts | 281° |
| 2026-05-06 20:39 | -20.17078 | -55.28765 | 19927 ft | 404 kts | 283° |
| 2026-05-06 20:40 | -20.16187 | -55.31610 | 20368 ft | 407 kts | 293° |
| 2026-05-06 20:40 | -20.14922 | -55.34320 | 20752 ft | 411 kts | 296° |
| 2026-05-06 20:40 | -20.13620 | -55.37030 | 21145 ft | 413 kts | 296° |
| 2026-05-06 20:40 | -20.12306 | -55.39758 | 21515 ft | 415 kts | 296° |
| 2026-05-06 20:41 | -20.10987 | -55.42503 | 21855 ft | 418 kts | 296° |
| 2026-05-06 20:41 | -20.09662 | -55.45262 | 21955 ft | 418 kts | 296° |
| 2026-05-06 20:41 | -20.08339 | -55.48016 | 21967 ft | 418 kts | 296° |
| 2026-05-06 20:41 | -20.07014 | -55.50777 | 21966 ft | 418 kts | 296° |
| 2026-05-06 20:42 | -20.05695 | -55.53527 | 21968 ft | 418 kts | 296° |
| 2026-05-06 20:42 | -20.04376 | -55.56281 | 21967 ft | 418 kts | 296° |
| 2026-05-06 20:42 | -20.03059 | -55.59031 | 21961 ft | 418 kts | 296° |
| 2026-05-06 20:42 | -20.01741 | -55.61780 | 21961 ft | 418 kts | 296° |
| 2026-05-06 20:43 | -20.00419 | -55.64528 | 21962 ft | 418 kts | 296° |
| 2026-05-06 20:43 | -19.99096 | -55.67278 | 21961 ft | 417 kts | 296° |
| 2026-05-06 20:43 | -19.97773 | -55.70027 | 21958 ft | 417 kts | 296° |
| 2026-05-06 20:43 | -19.96451 | -55.72775 | 21959 ft | 418 kts | 296° |
| 2026-05-06 20:44 | -19.95125 | -55.75528 | 21958 ft | 419 kts | 296° |
| 2026-05-06 20:44 | -19.93798 | -55.78285 | 21958 ft | 419 kts | 296° |
| 2026-05-06 20:44 | -19.92471 | -55.81039 | 21958 ft | 418 kts | 296° |
| 2026-05-06 20:44 | -19.91150 | -55.83781 | 21959 ft | 418 kts | 296° |
| 2026-05-06 20:45 | -19.89826 | -55.86527 | 21959 ft | 418 kts | 296° |
| 2026-05-06 20:45 | -19.88498 | -55.89275 | 21956 ft | 418 kts | 296° |
| 2026-05-06 20:45 | -19.87171 | -55.92020 | 21956 ft | 418 kts | 296° |
| 2026-05-06 20:45 | -19.85845 | -55.94765 | 21956 ft | 418 kts | 296° |
| 2026-05-06 20:46 | -19.84520 | -55.97509 | 21956 ft | 418 kts | 296° |
| 2026-05-06 20:46 | -19.83196 | -56.00256 | 21956 ft | 418 kts | 296° |
| 2026-05-06 20:46 | -19.81868 | -56.03000 | 21956 ft | 417 kts | 296° |
| 2026-05-06 20:46 | -19.80537 | -56.05740 | 21956 ft | 418 kts | 296° |
| 2026-05-06 20:47 | -19.79206 | -56.08483 | 21952 ft | 418 kts | 296° |
| 2026-05-06 20:47 | -19.77877 | -56.11225 | 21951 ft | 418 kts | 296° |
| 2026-05-06 20:47 | -19.76550 | -56.13969 | 21953 ft | 419 kts | 296° |
| 2026-05-06 20:47 | -19.75216 | -56.16726 | 21953 ft | 420 kts | 296° |
| 2026-05-06 20:48 | -19.73879 | -56.19482 | 21956 ft | 420 kts | 296° |
| 2026-05-06 20:48 | -19.72543 | -56.22234 | 21955 ft | 419 kts | 296° |
| 2026-05-06 20:48 | -19.71204 | -56.24990 | 21956 ft | 419 kts | 296° |
| 2026-05-06 20:48 | -19.69879 | -56.27709 | 21956 ft | 419 kts | 296° |
| 2026-05-06 20:49 | -19.68541 | -56.30458 | 21956 ft | 419 kts | 296° |
| 2026-05-06 20:49 | -19.67203 | -56.33208 | 21949 ft | 419 kts | 296° |
| 2026-05-06 20:49 | -19.65866 | -56.35959 | 21950 ft | 419 kts | 296° |
| 2026-05-06 20:49 | -19.64533 | -56.38700 | 21899 ft | 417 kts | 296° |
| 2026-05-06 20:50 | -19.63204 | -56.41427 | 21357 ft | 415 kts | 296° |
| 2026-05-06 20:50 | -19.61883 | -56.44140 | 20820 ft | 412 kts | 296° |
| 2026-05-06 20:50 | -19.60571 | -56.46829 | 20310 ft | 409 kts | 296° |
| 2026-05-06 20:50 | -19.59268 | -56.49497 | 19816 ft | 406 kts | 296° |
| 2026-05-06 20:51 | -19.57977 | -56.52143 | 19346 ft | 402 kts | 296° |
| 2026-05-06 20:51 | -19.56694 | -56.54767 | 18845 ft | 399 kts | 296° |
| 2026-05-06 20:51 | -19.55422 | -56.57367 | 18347 ft | 396 kts | 296° |
| 2026-05-06 20:51 | -19.54161 | -56.59944 | 17820 ft | 392 kts | 297° |
| 2026-05-06 20:52 | -19.52916 | -56.62497 | 17291 ft | 387 kts | 297° |
| 2026-05-06 20:52 | -19.51685 | -56.65017 | 16723 ft | 383 kts | 298° |
| 2026-05-06 20:52 | -19.50464 | -56.67518 | 16114 ft | 381 kts | 298° |
| 2026-05-06 20:52 | -19.49248 | -56.70009 | 15518 ft | 379 kts | 298° |
| 2026-05-06 20:53 | -19.48040 | -56.72481 | 14955 ft | 377 kts | 299° |
| 2026-05-06 20:53 | -19.46836 | -56.74938 | 14393 ft | 374 kts | 299° |
| 2026-05-06 20:53 | -19.45636 | -56.77375 | 13833 ft | 372 kts | 299° |
| 2026-05-06 20:53 | -19.44446 | -56.79791 | 13234 ft | 369 kts | 299° |
| 2026-05-06 20:54 | -19.43264 | -56.82196 | 12649 ft | 366 kts | 299° |
| 2026-05-06 20:54 | -19.42092 | -56.84578 | 12127 ft | 363 kts | 299° |
| 2026-05-06 20:54 | -19.40930 | -56.86941 | 11945 ft | 362 kts | 299° |
| 2026-05-06 20:54 | -19.39770 | -56.89306 | 11937 ft | 362 kts | 299° |
| 2026-05-06 20:55 | -19.38613 | -56.91669 | 11936 ft | 362 kts | 298° |
| 2026-05-06 20:55 | -19.37448 | -56.94041 | 11941 ft | 362 kts | 299° |
| 2026-05-06 20:55 | -19.36282 | -56.96407 | 11937 ft | 362 kts | 299° |
| 2026-05-06 20:55 | -19.35116 | -56.98772 | 11939 ft | 362 kts | 299° |
| 2026-05-06 20:56 | -19.33951 | -57.01134 | 11938 ft | 362 kts | 299° |
| 2026-05-06 20:56 | -19.32831 | -57.03524 | 11788 ft | 360 kts | 294° |
| 2026-05-06 20:56 | -19.32066 | -57.05997 | 11535 ft | 346 kts | 285° |
| 2026-05-06 20:56 | -19.31514 | -57.08404 | 11296 ft | 327 kts | 285° |
| 2026-05-06 20:57 | -19.30981 | -57.10691 | 11069 ft | 316 kts | 285° |
| 2026-05-06 20:57 | -19.30456 | -57.12922 | 10836 ft | 309 kts | 285° |
| 2026-05-06 20:57 | -19.29938 | -57.15100 | 10605 ft | 302 kts | 285° |
| 2026-05-06 20:57 | -19.29426 | -57.17236 | 10377 ft | 296 kts | 286° |
| 2026-05-06 20:58 | -19.28926 | -57.19330 | 10146 ft | 291 kts | 285° |
| 2026-05-06 20:58 | -19.28435 | -57.21396 | 9941 ft | 287 kts | 286° |
| 2026-05-06 20:58 | -19.27951 | -57.23438 | 9827 ft | 286 kts | 285° |
| 2026-05-06 20:58 | -19.27469 | -57.25478 | 9707 ft | 286 kts | 285° |
| 2026-05-06 20:59 | -19.26987 | -57.27515 | 9574 ft | 284 kts | 286° |
| 2026-05-06 20:59 | -19.26512 | -57.29517 | 9449 ft | 285 kts | 285° |
| 2026-05-06 20:59 | -19.26029 | -57.31545 | 9322 ft | 284 kts | 285° |
| 2026-05-06 20:59 | -19.25543 | -57.33591 | 9194 ft | 288 kts | 285° |
| 2026-05-06 21:00 | -19.25053 | -57.35653 | 9070 ft | 289 kts | 285° |
| 2026-05-06 21:00 | -19.24563 | -57.37718 | 8947 ft | 289 kts | 285° |
| 2026-05-06 21:00 | -19.24074 | -57.39775 | 8822 ft | 288 kts | 286° |
| 2026-05-06 21:00 | -19.23587 | -57.41821 | 8697 ft | 286 kts | 286° |
| 2026-05-06 21:01 | -19.23100 | -57.43859 | 8574 ft | 285 kts | 287° |
| 2026-05-06 21:01 | -19.22613 | -57.45898 | 8447 ft | 286 kts | 287° |
| 2026-05-06 21:01 | -19.22127 | -57.47929 | 8330 ft | 285 kts | 287° |
| 2026-05-06 21:01 | -19.21644 | -57.49957 | 8199 ft | 284 kts | 286° |
| 2026-05-06 21:02 | -19.21161 | -57.51987 | 8076 ft | 285 kts | 286° |
| 2026-05-06 21:02 | -19.20677 | -57.54014 | 7957 ft | 285 kts | 286° |
| 2026-05-06 21:02 | -19.20354 | -57.55359 | 7875 ft | 284 kts | 286° |
| 2026-05-06 21:02 | -19.19861 | -57.57413 | 7753 ft | 284 kts | 286° |
| 2026-05-06 21:03 | -19.19382 | -57.59409 | 7635 ft | 283 kts | 286° |
| 2026-05-06 21:03 | -19.18899 | -57.61428 | 7513 ft | 283 kts | 285° |
| 2026-05-06 21:03 | -19.18412 | -57.63473 | 7391 ft | 282 kts | 286° |
| 2026-05-06 21:03 | -19.17932 | -57.65485 | 7275 ft | 281 kts | 287° |
| 2026-05-06 21:04 | -19.17456 | -57.67482 | 7158 ft | 280 kts | 287° |
| 2026-05-06 21:04 | -19.16985 | -57.69447 | 7039 ft | 279 kts | 287° |
| 2026-05-06 21:04 | -19.16505 | -57.71449 | 6633 ft | 282 kts | 287° |
| 2026-05-06 21:04 | -19.16025 | -57.73447 | 6202 ft | 279 kts | 287° |
| 2026-05-06 21:05 | -19.15550 | -57.75427 | 5660 ft | 276 kts | 287° |
| 2026-05-06 21:05 | -19.15080 | -57.77389 | 5175 ft | 273 kts | 288° |
| 2026-05-06 21:05 | -19.14608 | -57.79328 | 4694 ft | 271 kts | 290° |
| 2026-05-06 21:05 | -19.13787 | -57.81084 | 4219 ft | 263 kts | 310° |
| 2026-05-06 21:06 | -19.12504 | -57.82402 | 3742 ft | 256 kts | 329° |
| 2026-05-06 21:06 | -19.10916 | -57.83207 | 3246 ft | 252 kts | 346° |
| 2026-05-06 21:06 | -19.09222 | -57.83699 | 2768 ft | 251 kts | 346° |
| 2026-05-06 21:06 | -19.07586 | -57.84017 | 2672 ft | 227 kts | 5° |
| 2026-05-06 21:07 | -19.06188 | -57.83540 | 2642 ft | 203 kts | 34° |
| 2026-05-06 21:07 | -19.05306 | -57.82496 | 2570 ft | 184 kts | 60° |
| 2026-05-06 21:07 | -19.04927 | -57.81262 | 2485 ft | 168 kts | 70° |
| 2026-05-06 21:07 | -19.04634 | -57.80142 | 2411 ft | 151 kts | 70° |
| 2026-05-06 21:08 | -19.04353 | -57.79092 | 2336 ft | 147 kts | 71° |
| 2026-05-06 21:08 | -19.04070 | -57.78039 | 2271 ft | 150 kts | 71° |
| 2026-05-06 21:08 | -19.03787 | -57.76984 | 2197 ft | 149 kts | 70° |
| 2026-05-06 21:08 | -19.03508 | -57.75941 | 2128 ft | 145 kts | 70° |
| 2026-05-06 21:09 | -19.03235 | -57.74924 | 1924 ft | 143 kts | 70° |
| 2026-05-06 21:09 | -19.02963 | -57.73916 | 1723 ft | 142 kts | 69° |
| 2026-05-06 21:09 | -19.02704 | -57.72944 | 1537 ft | 135 kts | 70° |
| 2026-05-06 21:09 | -19.02451 | -57.71997 | 1360 ft | 132 kts | 73° |
| 2026-05-06 21:10 | -19.02202 | -57.71063 | 1174 ft | 133 kts | 72° |
| 2026-05-06 21:10 | -19.01937 | -57.70129 | 1001 ft | 134 kts | 73° |
| 2026-05-06 21:10 | -19.01676 | -57.69148 | 832 ft | 143 kts | 76° |
| 2026-05-06 21:10 | -19.01421 | -57.68127 | 550 ft | 146 kts | 73° |
| 2026-05-06 21:11 | -19.01145 | -57.67128 | 481 ft | 130 kts | 75° |
| 2026-05-06 21:11 | -19.00965 | -57.66472 | 487 ft | 45 kts | 79° |
| 2026-05-06 21:11 | -19.01079 | -57.66341 | 485 ft | 27 kts | 154° |
| 2026-05-06 21:11 | -19.01190 | -57.66289 | 486 ft | 16 kts | 153° |
| 2026-05-06 21:12 | -19.01271 | -57.66262 | 486 ft | 13 kts | 195° |
| 2026-05-06 21:12 | -19.01305 | -57.66344 | 486 ft | 13 kts | 262° |
| 2026-05-06 21:12 | -19.01348 | -57.66385 | 481 ft | 1 kts | 146° |
| 2026-05-06 21:12 | -19.01355 | -57.66378 | 486 ft | 2 kts | 138° |
| 2026-05-06 21:13 | -19.01361 | -57.66372 | 486 ft | 0 kts | 136° |